Dushan, China
Current Conditions -  °F | °C
As of 5:00 AM on Friday 21 Nov 2014 (Local Time) from ZUGY Reporting Station
Light Rain Light Rain  
Wind Chill: 52°   Ceiling: 1000
Heat Index: 52°   Visibility: 0.93mi
Dew Point: 52°   Wind: 2mph
Humidity: 100%   Direction: NA
Pressure: 30.03"   Gusts: NA
Location:  25.83°N, 107.55°E
Report Text: ZUGY 202100Z VRB01MPS 1500 R19/0700D -RA BR SCT003BKN010OVC026 11/11 Q1017 BECMG TL2230 2000 SCT005 BKN015 OVC030
Loading
Personal Weather Stations






























Interactive Weather Map New forecast layout! Learn more

10-Day Weather Forecast

Advertisements
Track Severe Weather on mobile